sensor_id;sensor_type;location;lat;lon;timestamp;temperature;humidity
23207;DHT22;11773;52.570;13.052;2022-10-13T00:01:38;8.00;99.90
23207;DHT22;11773;52.570;13.052;2022-10-13T00:04:08;8.00;99.90
23207;DHT22;11773;52.570;13.052;2022-10-13T00:06:37;8.00;99.90
23207;DHT22;11773;52.570;13.052;2022-10-13T00:09:07;8.00;99.90
23207;DHT22;11773;52.570;13.052;2022-10-13T00:11:36;8.00;99.90
23207;DHT22;11773;52.570;13.052;2022-10-13T00:14:06;8.00;99.90
23207;DHT22;11773;52.570;13.052;2022-10-13T00:16:35;7.90;99.90
23207;DHT22;11773;52.570;13.052;2022-10-13T00:19:05;7.90;99.90
23207;DHT22;11773;52.570;13.052;2022-10-13T00:21:36;7.80;99.90
23207;DHT22;11773;52.570;13.052;2022-10-13T00:24:08;7.80;99.90
23207;DHT22;11773;52.570;13.052;2022-10-13T00:26:38;7.90;99.90
23207;DHT22;11773;52.570;13.052;2022-10-13T00:29:08;7.80;99.90
23207;DHT22;11773;52.570;13.052;2022-10-13T00:31:37;7.90;99.90
23207;DHT22;11773;52.570;13.052;2022-10-13T00:34:07;7.70;99.90
23207;DHT22;11773;52.570;13.052;2022-10-13T00:36:37;7.70;99.90
23207;DHT22;11773;52.570;13.052;2022-10-13T00:39:06;7.70;99.90
23207;DHT22;11773;52.570;13.052;2022-10-13T00:41:36;7.60;99.90
23207;DHT22;11773;52.570;13.052;2022-10-13T00:46:55;7.60;99.90
23207;DHT22;11773;52.570;13.052;2022-10-13T00:49:24;7.60;99.90
23207;DHT22;11773;52.570;13.052;2022-10-13T00:51:54;7.60;99.90
23207;DHT22;11773;52.570;13.052;2022-10-13T00:54:24;7.60;99.90
23207;DHT22;11773;52.570;13.052;2022-10-13T00:56:53;7.50;99.90
23207;DHT22;11773;52.570;13.052;2022-10-13T00:59:25;7.60;99.90
23207;DHT22;11773;52.570;13.052;2022-10-13T01:01:57;7.60;99.90
23207;DHT22;11773;52.570;13.052;2022-10-13T01:04:33;7.60;99.90
23207;DHT22;11773;52.570;13.052;2022-10-13T01:07:04;7.60;99.90
23207;DHT22;11773;52.570;13.052;2022-10-13T01:09:35;7.70;99.90
23207;DHT22;11773;52.570;13.052;2022-10-13T01:21:07;7.50;99.90
23207;DHT22;11773;52.570;13.052;2022-10-13T01:24:11;7.50;99.90
23207;DHT22;11773;52.570;13.052;2022-10-13T01:32:49;7.50;99.90
23207;DHT22;11773;52.570;13.052;2022-10-13T01:38:38;7.40;99.90
23207;DHT22;11773;52.570;13.052;2022-10-13T01:41:29;7.50;99.90
23207;DHT22;11773;52.570;13.052;2022-10-13T01:44:22;7.50;99.90
23207;DHT22;11773;52.570;13.052;2022-10-13T01:46:55;7.40;99.90
23207;DHT22;11773;52.570;13.052;2022-10-13T01:49:27;7.40;99.90
23207;DHT22;11773;52.570;13.052;2022-10-13T01:52:05;7.40;99.90
23207;DHT22;11773;52.570;13.052;2022-10-13T01:54:34;7.40;99.90
23207;DHT22;11773;52.570;13.052;2022-10-13T01:57:03;7.40;99.90
23207;DHT22;11773;52.570;13.052;2022-10-13T01:59:34;7.20;99.90
23207;DHT22;11773;52.570;13.052;2022-10-13T02:02:20;7.20;99.90
23207;DHT22;11773;52.570;13.052;2022-10-13T02:05:19;7.10;99.90
23207;DHT22;11773;52.570;13.052;2022-10-13T02:07:59;7.20;99.90
23207;DHT22;11773;52.570;13.052;2022-10-13T02:10:49;7.10;99.90
23207;DHT22;11773;52.570;13.052;2022-10-13T02:13:22;7.10;99.90
23207;DHT22;11773;52.570;13.052;2022-10-13T02:15:57;7.00;99.90
23207;DHT22;11773;52.570;13.052;2022-10-13T02:18:35;6.90;99.90
23207;DHT22;11773;52.570;13.052;2022-10-13T02:21:03;7.00;99.90
23207;DHT22;11773;52.570;13.052;2022-10-13T02:23:32;7.00;99.90
23207;DHT22;11773;52.570;13.052;2022-10-13T02:26:03;7.10;99.90
23207;DHT22;11773;52.570;13.052;2022-10-13T02:28:35;7.10;99.90
23207;DHT22;11773;52.570;13.052;2022-10-13T02:31:07;7.10;99.90
23207;DHT22;11773;52.570;13.052;2022-10-13T02:33:37;7.10;99.90
23207;DHT22;11773;52.570;13.052;2022-10-13T02:36:06;6.90;99.90
23207;DHT22;11773;52.570;13.052;2022-10-13T02:38:36;6.90;99.90
23207;DHT22;11773;52.570;13.052;2022-10-13T02:41:05;7.00;99.90
23207;DHT22;11773;52.570;13.052;2022-10-13T02:43:35;7.10;99.90
23207;DHT22;11773;52.570;13.052;2022-10-13T02:46:05;7.00;99.90
23207;DHT22;11773;52.570;13.052;2022-10-13T02:48:34;7.10;99.90
23207;DHT22;11773;52.570;13.052;2022-10-13T02:51:04;7.00;99.90
23207;DHT22;11773;52.570;13.052;2022-10-13T02:53:33;7.10;99.90
23207;DHT22;11773;52.570;13.052;2022-10-13T02:56:03;7.00;99.90
23207;DHT22;11773;52.570;13.052;2022-10-13T02:58:33;7.10;99.90
23207;DHT22;11773;52.570;13.052;2022-10-13T03:01:08;7.20;99.90
23207;DHT22;11773;52.570;13.052;2022-10-13T03:03:39;7.00;99.90
23207;DHT22;11773;52.570;13.052;2022-10-13T03:06:09;7.10;99.90
23207;DHT22;11773;52.570;13.052;2022-10-13T03:08:39;7.00;99.90
23207;DHT22;11773;52.570;13.052;2022-10-13T03:11:08;7.00;99.90
23207;DHT22;11773;52.570;13.052;2022-10-13T03:13:38;7.10;99.90
23207;DHT22;11773;52.570;13.052;2022-10-13T03:16:08;7.10;99.90
23207;DHT22;11773;52.570;13.052;2022-10-13T03:18:37;7.20;99.90
23207;DHT22;11773;52.570;13.052;2022-10-13T03:21:07;7.30;99.90
23207;DHT22;11773;52.570;13.052;2022-10-13T03:23:37;7.20;99.90
23207;DHT22;11773;52.570;13.052;2022-10-13T03:26:07;7.10;99.90
23207;DHT22;11773;52.570;13.052;2022-10-13T03:28:37;6.90;99.90
23207;DHT22;11773;52.570;13.052;2022-10-13T03:31:07;7.00;99.90
23207;DHT22;11773;52.570;13.052;2022-10-13T03:33:39;7.00;99.90
23207;DHT22;11773;52.570;13.052;2022-10-13T03:36:10;7.00;99.90
23207;DHT22;11773;52.570;13.052;2022-10-13T03:38:43;7.10;99.90
23207;DHT22;11773;52.570;13.052;2022-10-13T03:41:15;7.10;99.90
23207;DHT22;11773;52.570;13.052;2022-10-13T03:43:45;7.10;99.90
23207;DHT22;11773;52.570;13.052;2022-10-13T03:46:16;7.10;99.90
23207;DHT22;11773;52.570;13.052;2022-10-13T03:48:46;7.20;99.90
23207;DHT22;11773;52.570;13.052;2022-10-13T03:51:18;7.20;99.90
23207;DHT22;11773;52.570;13.052;2022-10-13T03:53:50;7.10;99.90
23207;DHT22;11773;52.570;13.052;2022-10-13T03:56:25;7.20;99.90
23207;DHT22;11773;52.570;13.052;2022-10-13T03:58:56;7.30;99.90
23207;DHT22;11773;52.570;13.052;2022-10-13T04:01:28;7.30;99.90
23207;DHT22;11773;52.570;13.052;2022-10-13T04:03:59;7.40;99.90
23207;DHT22;11773;52.570;13.052;2022-10-13T04:06:32;7.40;99.90
23207;DHT22;11773;52.570;13.052;2022-10-13T04:09:01;7.40;99.90
23207;DHT22;11773;52.570;13.052;2022-10-13T04:11:31;7.50;99.90
23207;DHT22;11773;52.570;13.052;2022-10-13T04:14:01;7.50;99.90
23207;DHT22;11773;52.570;13.052;2022-10-13T04:16:31;7.40;99.90
23207;DHT22;11773;52.570;13.052;2022-10-13T04:19:03;7.50;99.90
23207;DHT22;11773;52.570;13.052;2022-10-13T04:21:34;7.50;99.90
23207;DHT22;11773;52.570;13.052;2022-10-13T04:24:04;7.40;99.90
23207;DHT22;11773;52.570;13.052;2022-10-13T04:26:35;7.40;99.90
23207;DHT22;11773;52.570;13.052;2022-10-13T04:29:05;7.60;99.90
23207;DHT22;11773;52.570;13.052;2022-10-13T04:31:38;7.50;99.90
23207;DHT22;11773;52.570;13.052;2022-10-13T04:34:10;7.60;99.90
23207;DHT22;11773;52.570;13.052;2022-10-13T04:36:39;7.60;99.90
23207;DHT22;11773;52.570;13.052;2022-10-13T04:39:09;7.60;99.90
23207;DHT22;11773;52.570;13.052;2022-10-13T04:41:39;7.60;99.90
23207;DHT22;11773;52.570;13.052;2022-10-13T04:44:08;7.80;99.90
23207;DHT22;11773;52.570;13.052;2022-10-13T04:46:38;7.90;99.90
23207;DHT22;11773;52.570;13.052;2022-10-13T04:49:07;7.80;99.90
23207;DHT22;11773;52.570;13.052;2022-10-13T04:51:37;7.80;99.90
23207;DHT22;11773;52.570;13.052;2022-10-13T04:54:06;7.80;99.90
23207;DHT22;11773;52.570;13.052;2022-10-13T04:56:36;7.80;99.90
23207;DHT22;11773;52.570;13.052;2022-10-13T04:59:06;7.80;99.90
23207;DHT22;11773;52.570;13.052;2022-10-13T05:01:35;7.80;99.90
23207;DHT22;11773;52.570;13.052;2022-10-13T05:04:05;7.80;99.90
23207;DHT22;11773;52.570;13.052;2022-10-13T05:06:38;7.80;99.90
23207;DHT22;11773;52.570;13.052;2022-10-13T05:09:14;7.90;99.90
23207;DHT22;11773;52.570;13.052;2022-10-13T05:11:43;8.00;99.90
23207;DHT22;11773;52.570;13.052;2022-10-13T05:14:13;8.10;99.90
23207;DHT22;11773;52.570;13.052;2022-10-13T05:16:42;8.10;99.90
23207;DHT22;11773;52.570;13.052;2022-10-13T05:19:12;8.00;99.90
23207;DHT22;11773;52.570;13.052;2022-10-13T05:21:42;8.00;99.90
23207;DHT22;11773;52.570;13.052;2022-10-13T05:24:11;8.00;99.90
23207;DHT22;11773;52.570;13.052;2022-10-13T05:26:42;8.00;99.90
23207;DHT22;11773;52.570;13.052;2022-10-13T05:29:12;8.00;99.90
23207;DHT22;11773;52.570;13.052;2022-10-13T05:31:41;8.00;99.90
23207;DHT22;11773;52.570;13.052;2022-10-13T05:34:11;8.00;99.90
23207;DHT22;11773;52.570;13.052;2022-10-13T05:36:41;8.00;99.90
23207;DHT22;11773;52.570;13.052;2022-10-13T05:39:10;8.00;99.90
23207;DHT22;11773;52.570;13.052;2022-10-13T05:41:40;8.10;99.90
23207;DHT22;11773;52.570;13.052;2022-10-13T05:44:09;8.10;99.90
23207;DHT22;11773;52.570;13.052;2022-10-13T05:46:39;8.00;99.90
23207;DHT22;11773;52.570;13.052;2022-10-13T05:49:09;8.00;99.90
23207;DHT22;11773;52.570;13.052;2022-10-13T05:51:40;8.00;99.90
23207;DHT22;11773;52.570;13.052;2022-10-13T05:54:18;8.00;99.90
23207;DHT22;11773;52.570;13.052;2022-10-13T05:57:11;8.10;99.90
23207;DHT22;11773;52.570;13.052;2022-10-13T06:00:01;8.10;99.90
23207;DHT22;11773;52.570;13.052;2022-10-13T06:02:30;8.10;99.90
23207;DHT22;11773;52.570;13.052;2022-10-13T06:05:02;8.10;99.90
23207;DHT22;11773;52.570;13.052;2022-10-13T06:07:35;8.10;99.90
23207;DHT22;11773;52.570;13.052;2022-10-13T06:10:05;8.10;99.90
23207;DHT22;11773;52.570;13.052;2022-10-13T06:12:34;8.00;99.90
23207;DHT22;11773;52.570;13.052;2022-10-13T06:15:04;8.20;99.90
23207;DHT22;11773;52.570;13.052;2022-10-13T06:17:38;8.20;99.90
23207;DHT22;11773;52.570;13.052;2022-10-13T06:20:08;8.20;99.90
23207;DHT22;11773;52.570;13.052;2022-10-13T06:22:38;8.10;99.90
23207;DHT22;11773;52.570;13.052;2022-10-13T06:25:08;8.10;99.90
23207;DHT22;11773;52.570;13.052;2022-10-13T06:27:38;8.30;99.90
23207;DHT22;11773;52.570;13.052;2022-10-13T06:30:07;8.30;99.90
23207;DHT22;11773;52.570;13.052;2022-10-13T06:32:37;8.20;99.90
23207;DHT22;11773;52.570;13.052;2022-10-13T06:35:07;8.20;99.90
23207;DHT22;11773;52.570;13.052;2022-10-13T06:37:36;8.30;99.90
23207;DHT22;11773;52.570;13.052;2022-10-13T06:40:06;8.50;99.90
23207;DHT22;11773;52.570;13.052;2022-10-13T06:42:36;8.50;99.90
23207;DHT22;11773;52.570;13.052;2022-10-13T06:45:06;8.50;99.90
23207;DHT22;11773;52.570;13.052;2022-10-13T06:47:36;8.50;99.90
23207;DHT22;11773;52.570;13.052;2022-10-13T06:50:06;8.60;99.90
23207;DHT22;11773;52.570;13.052;2022-10-13T06:52:36;8.60;99.90
23207;DHT22;11773;52.570;13.052;2022-10-13T06:55:06;8.60;99.90
23207;DHT22;11773;52.570;13.052;2022-10-13T06:57:35;8.70;99.90
23207;DHT22;11773;52.570;13.052;2022-10-13T07:00:06;8.80;99.90
23207;DHT22;11773;52.570;13.052;2022-10-13T07:02:35;8.80;99.90
23207;DHT22;11773;52.570;13.052;2022-10-13T07:05:05;8.90;99.90
23207;DHT22;11773;52.570;13.052;2022-10-13T07:07:35;8.90;99.90
23207;DHT22;11773;52.570;13.052;2022-10-13T07:10:04;9.00;99.90
23207;DHT22;11773;52.570;13.052;2022-10-13T07:12:34;9.00;99.90
23207;DHT22;11773;52.570;13.052;2022-10-13T07:15:04;9.10;99.90
23207;DHT22;11773;52.570;13.052;2022-10-13T07:17:33;9.10;99.90
23207;DHT22;11773;52.570;13.052;2022-10-13T07:20:03;9.30;99.90
23207;DHT22;11773;52.570;13.052;2022-10-13T07:22:34;9.30;99.90
23207;DHT22;11773;52.570;13.052;2022-10-13T07:25:03;9.30;99.90
23207;DHT22;11773;52.570;13.052;2022-10-13T07:27:33;9.50;99.90
23207;DHT22;11773;52.570;13.052;2022-10-13T07:30:05;9.60;99.90
23207;DHT22;11773;52.570;13.052;2022-10-13T07:32:35;9.70;99.90
23207;DHT22;11773;52.570;13.052;2022-10-13T07:35:05;9.60;99.90
23207;DHT22;11773;52.570;13.052;2022-10-13T07:37:37;9.70;99.90
23207;DHT22;11773;52.570;13.052;2022-10-13T07:40:08;9.80;99.90
23207;DHT22;11773;52.570;13.052;2022-10-13T07:42:38;9.90;99.90
23207;DHT22;11773;52.570;13.052;2022-10-13T07:45:08;10.00;99.90
23207;DHT22;11773;52.570;13.052;2022-10-13T07:47:37;10.20;99.90
23207;DHT22;11773;52.570;13.052;2022-10-13T07:50:07;10.30;99.90
23207;DHT22;11773;52.570;13.052;2022-10-13T07:52:37;10.50;99.90
23207;DHT22;11773;52.570;13.052;2022-10-13T07:55:07;10.60;99.90
23207;DHT22;11773;52.570;13.052;2022-10-13T07:57:37;10.60;99.90
23207;DHT22;11773;52.570;13.052;2022-10-13T08:00:07;10.50;99.90
23207;DHT22;11773;52.570;13.052;2022-10-13T08:02:37;10.50;99.90
23207;DHT22;11773;52.570;13.052;2022-10-13T08:05:07;10.50;99.90
23207;DHT22;11773;52.570;13.052;2022-10-13T08:07:36;10.50;99.90
23207;DHT22;11773;52.570;13.052;2022-10-13T08:10:07;10.60;99.90
23207;DHT22;11773;52.570;13.052;2022-10-13T08:12:36;10.60;99.90
23207;DHT22;11773;52.570;13.052;2022-10-13T08:15:06;10.70;99.90
23207;DHT22;11773;52.570;13.052;2022-10-13T08:17:36;10.70;99.90
23207;DHT22;11773;52.570;13.052;2022-10-13T08:20:06;10.80;99.90
23207;DHT22;11773;52.570;13.052;2022-10-13T08:22:37;11.10;99.90
23207;DHT22;11773;52.570;13.052;2022-10-13T08:25:07;11.10;99.90
23207;DHT22;11773;52.570;13.052;2022-10-13T08:27:37;11.20;99.90
23207;DHT22;11773;52.570;13.052;2022-10-13T08:30:09;11.30;99.90
23207;DHT22;11773;52.570;13.052;2022-10-13T08:32:39;11.40;99.90
23207;DHT22;11773;52.570;13.052;2022-10-13T08:35:09;11.50;99.90
23207;DHT22;11773;52.570;13.052;2022-10-13T08:37:38;11.50;99.90
23207;DHT22;11773;52.570;13.052;2022-10-13T08:40:15;11.70;99.90
23207;DHT22;11773;52.570;13.052;2022-10-13T08:42:43;11.80;99.90
23207;DHT22;11773;52.570;13.052;2022-10-13T08:45:22;11.90;99.90
23207;DHT22;11773;52.570;13.052;2022-10-13T08:48:00;12.00;99.90
23207;DHT22;11773;52.570;13.052;2022-10-13T08:50:34;12.10;99.90
23207;DHT22;11773;52.570;13.052;2022-10-13T08:56:14;12.20;99.90
23207;DHT22;11773;52.570;13.052;2022-10-13T08:58:49;12.20;99.90
23207;DHT22;11773;52.570;13.052;2022-10-13T09:01:37;12.30;99.90
23207;DHT22;11773;52.570;13.052;2022-10-13T09:07:16;12.50;99.90
23207;DHT22;11773;52.570;13.052;2022-10-13T09:09:40;12.60;99.90
23207;DHT22;11773;52.570;13.052;2022-10-13T09:12:11;12.50;99.90
23207;DHT22;11773;52.570;13.052;2022-10-13T09:14:54;12.60;99.90
23207;DHT22;11773;52.570;13.052;2022-10-13T09:17:28;12.60;99.90
23207;DHT22;11773;52.570;13.052;2022-10-13T09:22:42;12.80;99.90
23207;DHT22;11773;52.570;13.052;2022-10-13T09:25:17;12.80;99.90
23207;DHT22;11773;52.570;13.052;2022-10-13T09:27:54;13.00;99.90
23207;DHT22;11773;52.570;13.052;2022-10-13T09:30:39;13.10;99.90
23207;DHT22;11773;52.570;13.052;2022-10-13T09:35:47;13.20;99.90
23207;DHT22;11773;52.570;13.052;2022-10-13T09:38:31;13.30;99.90
23207;DHT22;11773;52.570;13.052;2022-10-13T09:41:11;13.40;99.90
23207;DHT22;11773;52.570;13.052;2022-10-13T09:46:27;13.70;99.90
23207;DHT22;11773;52.570;13.052;2022-10-13T09:54:49;14.00;99.90
23207;DHT22;11773;52.570;13.052;2022-10-13T10:00:26;14.10;99.90
23207;DHT22;11773;52.570;13.052;2022-10-13T10:03:04;14.10;99.90
23207;DHT22;11773;52.570;13.052;2022-10-13T10:05:38;14.20;99.90
23207;DHT22;11773;52.570;13.052;2022-10-13T10:11:55;14.30;99.90
23207;DHT22;11773;52.570;13.052;2022-10-13T10:14:25;14.50;99.90
23207;DHT22;11773;52.570;13.052;2022-10-13T10:17:00;14.50;99.90
23207;DHT22;11773;52.570;13.052;2022-10-13T10:19:56;14.50;99.90
23207;DHT22;11773;52.570;13.052;2022-10-13T10:22:33;14.70;99.90
23207;DHT22;11773;52.570;13.052;2022-10-13T10:25:26;14.80;99.90
23207;DHT22;11773;52.570;13.052;2022-10-13T10:28:20;14.90;99.90
23207;DHT22;11773;52.570;13.052;2022-10-13T10:34:20;15.10;99.90
23207;DHT22;11773;52.570;13.052;2022-10-13T10:39:55;15.40;99.90
23207;DHT22;11773;52.570;13.052;2022-10-13T10:42:45;15.50;99.90
23207;DHT22;11773;52.570;13.052;2022-10-13T10:45:33;15.60;99.90
23207;DHT22;11773;52.570;13.052;2022-10-13T10:48:11;15.80;99.90
23207;DHT22;11773;52.570;13.052;2022-10-13T10:50:46;15.80;99.90
23207;DHT22;11773;52.570;13.052;2022-10-13T10:56:14;15.70;99.90
23207;DHT22;11773;52.570;13.052;2022-10-13T10:59:05;15.80;99.90
23207;DHT22;11773;52.570;13.052;2022-10-13T11:01:40;15.90;99.90
23207;DHT22;11773;52.570;13.052;2022-10-13T11:04:44;16.00;99.90
23207;DHT22;11773;52.570;13.052;2022-10-13T11:10:18;15.90;99.90
23207;DHT22;11773;52.570;13.052;2022-10-13T11:15:28;16.00;99.90
23207;DHT22;11773;52.570;13.052;2022-10-13T11:18:00;16.10;99.90
23207;DHT22;11773;52.570;13.052;2022-10-13T11:23:36;16.10;99.90
23207;DHT22;11773;52.570;13.052;2022-10-13T11:25:47;16.20;99.90
23207;DHT22;11773;52.570;13.052;2022-10-13T11:31:46;16.30;99.90
23207;DHT22;11773;52.570;13.052;2022-10-13T11:34:24;16.40;99.90
23207;DHT22;11773;52.570;13.052;2022-10-13T11:36:59;16.30;99.90
23207;DHT22;11773;52.570;13.052;2022-10-13T11:39:36;16.30;99.90
23207;DHT22;11773;52.570;13.052;2022-10-13T11:42:30;16.50;99.90
23207;DHT22;11773;52.570;13.052;2022-10-13T11:45:12;16.40;99.90
23207;DHT22;11773;52.570;13.052;2022-10-13T11:48:09;16.50;99.90
23207;DHT22;11773;52.570;13.052;2022-10-13T11:56:55;16.70;99.90
23207;DHT22;11773;52.570;13.052;2022-10-13T11:59:33;16.70;99.90
23207;DHT22;11773;52.570;13.052;2022-10-13T12:05:06;16.70;99.90
23207;DHT22;11773;52.570;13.052;2022-10-13T12:07:55;16.90;99.90
23207;DHT22;11773;52.570;13.052;2022-10-13T12:10:31;16.80;99.90
23207;DHT22;11773;52.570;13.052;2022-10-13T12:13:04;16.90;99.90
23207;DHT22;11773;52.570;13.052;2022-10-13T12:15:36;16.90;99.90
23207;DHT22;11773;52.570;13.052;2022-10-13T12:18:23;16.90;99.90
23207;DHT22;11773;52.570;13.052;2022-10-13T12:20:56;16.90;99.90
23207;DHT22;11773;52.570;13.052;2022-10-13T12:23:27;16.90;99.90
23207;DHT22;11773;52.570;13.052;2022-10-13T12:25:58;16.90;99.90
23207;DHT22;11773;52.570;13.052;2022-10-13T12:28:53;16.90;99.90
23207;DHT22;11773;52.570;13.052;2022-10-13T12:31:27;16.90;99.90
23207;DHT22;11773;52.570;13.052;2022-10-13T12:34:01;16.80;99.90
23207;DHT22;11773;52.570;13.052;2022-10-13T12:36:32;16.90;99.90
23207;DHT22;11773;52.570;13.052;2022-10-13T12:39:10;16.90;99.90
23207;DHT22;11773;52.570;13.052;2022-10-13T12:41:42;17.00;99.90
23207;DHT22;11773;52.570;13.052;2022-10-13T12:44:19;17.00;99.90
23207;DHT22;11773;52.570;13.052;2022-10-13T12:46:53;17.00;99.90
23207;DHT22;11773;52.570;13.052;2022-10-13T12:49:28;17.10;99.90
23207;DHT22;11773;52.570;13.052;2022-10-13T12:54:54;17.10;99.90
23207;DHT22;11773;52.570;13.052;2022-10-13T12:57:33;17.10;99.90
23207;DHT22;11773;52.570;13.052;2022-10-13T13:03:02;17.00;99.90
23207;DHT22;11773;52.570;13.052;2022-10-13T13:05:36;17.00;99.90
23207;DHT22;11773;52.570;13.052;2022-10-13T13:08:27;17.10;99.90
23207;DHT22;11773;52.570;13.052;2022-10-13T13:11:04;17.10;99.90
23207;DHT22;11773;52.570;13.052;2022-10-13T13:13:35;17.20;99.90
23207;DHT22;11773;52.570;13.052;2022-10-13T13:16:16;17.10;99.90
23207;DHT22;11773;52.570;13.052;2022-10-13T13:18:49;17.00;99.90
23207;DHT22;11773;52.570;13.052;2022-10-13T13:21:19;17.10;99.90
23207;DHT22;11773;52.570;13.052;2022-10-13T13:23:49;17.00;99.90
23207;DHT22;11773;52.570;13.052;2022-10-13T13:26:22;17.10;99.90
23207;DHT22;11773;52.570;13.052;2022-10-13T13:28:53;17.30;99.90
23207;DHT22;11773;52.570;13.052;2022-10-13T13:31:25;17.30;99.90
23207;DHT22;11773;52.570;13.052;2022-10-13T13:33:54;17.20;99.90
23207;DHT22;11773;52.570;13.052;2022-10-13T13:36:25;17.10;99.90
23207;DHT22;11773;52.570;13.052;2022-10-13T13:38:54;17.20;99.90
23207;DHT22;11773;52.570;13.052;2022-10-13T13:41:24;17.20;99.90
23207;DHT22;11773;52.570;13.052;2022-10-13T13:43:55;17.30;99.90
23207;DHT22;11773;52.570;13.052;2022-10-13T13:46:25;17.30;99.90
23207;DHT22;11773;52.570;13.052;2022-10-13T13:48:55;17.40;99.90
23207;DHT22;11773;52.570;13.052;2022-10-13T13:51:25;17.50;99.90
23207;DHT22;11773;52.570;13.052;2022-10-13T13:53:55;17.50;99.90
23207;DHT22;11773;52.570;13.052;2022-10-13T13:56:26;17.50;99.90
23207;DHT22;11773;52.570;13.052;2022-10-13T13:58:55;17.50;99.90
23207;DHT22;11773;52.570;13.052;2022-10-13T14:01:25;17.50;99.90
23207;DHT22;11773;52.570;13.052;2022-10-13T14:03:54;17.50;99.90
23207;DHT22;11773;52.570;13.052;2022-10-13T14:06:24;17.50;99.90
23207;DHT22;11773;52.570;13.052;2022-10-13T14:08:54;17.40;99.90
23207;DHT22;11773;52.570;13.052;2022-10-13T14:11:23;17.50;99.90
23207;DHT22;11773;52.570;13.052;2022-10-13T14:13:53;17.40;99.90
23207;DHT22;11773;52.570;13.052;2022-10-13T14:16:43;17.40;99.90
23207;DHT22;11773;52.570;13.052;2022-10-13T14:19:13;17.20;99.90
23207;DHT22;11773;52.570;13.052;2022-10-13T14:21:42;17.30;99.90
23207;DHT22;11773;52.570;13.052;2022-10-13T14:24:12;17.30;99.90
23207;DHT22;11773;52.570;13.052;2022-10-13T14:26:42;17.30;99.90
23207;DHT22;11773;52.570;13.052;2022-10-13T14:29:11;17.40;99.90
23207;DHT22;11773;52.570;13.052;2022-10-13T14:31:41;17.30;99.90
23207;DHT22;11773;52.570;13.052;2022-10-13T14:34:10;17.40;99.90
23207;DHT22;11773;52.570;13.052;2022-10-13T14:36:40;17.40;99.90
23207;DHT22;11773;52.570;13.052;2022-10-13T14:39:10;17.20;99.90
23207;DHT22;11773;52.570;13.052;2022-10-13T14:41:39;17.20;99.90
23207;DHT22;11773;52.570;13.052;2022-10-13T14:44:10;17.20;99.90
23207;DHT22;11773;52.570;13.052;2022-10-13T14:46:41;17.20;99.90
23207;DHT22;11773;52.570;13.052;2022-10-13T14:49:10;17.00;99.90
23207;DHT22;11773;52.570;13.052;2022-10-13T14:51:40;17.00;99.90
23207;DHT22;11773;52.570;13.052;2022-10-13T14:54:09;17.00;99.90
23207;DHT22;11773;52.570;13.052;2022-10-13T14:56:39;17.00;99.90
23207;DHT22;11773;52.570;13.052;2022-10-13T14:59:08;16.90;99.90
23207;DHT22;11773;52.570;13.052;2022-10-13T15:01:40;16.80;99.90
23207;DHT22;11773;52.570;13.052;2022-10-13T15:04:10;16.90;99.90
23207;DHT22;11773;52.570;13.052;2022-10-13T15:06:40;16.80;99.90
23207;DHT22;11773;52.570;13.052;2022-10-13T15:09:09;16.80;99.90
23207;DHT22;11773;52.570;13.052;2022-10-13T15:11:39;16.80;99.90
23207;DHT22;11773;52.570;13.052;2022-10-13T15:14:08;16.80;99.90
23207;DHT22;11773;52.570;13.052;2022-10-13T15:16:38;16.70;99.90
23207;DHT22;11773;52.570;13.052;2022-10-13T15:19:07;16.60;99.90
23207;DHT22;11773;52.570;13.052;2022-10-13T15:21:37;16.60;99.90
23207;DHT22;11773;52.570;13.052;2022-10-13T15:24:08;16.50;99.90
23207;DHT22;11773;52.570;13.052;2022-10-13T15:26:38;16.40;99.90
23207;DHT22;11773;52.570;13.052;2022-10-13T15:29:08;16.40;99.90
23207;DHT22;11773;52.570;13.052;2022-10-13T15:31:37;16.30;99.90
23207;DHT22;11773;52.570;13.052;2022-10-13T15:34:07;16.20;99.90
23207;DHT22;11773;52.570;13.052;2022-10-13T15:36:36;16.20;99.90
23207;DHT22;11773;52.570;13.052;2022-10-13T15:39:06;16.20;99.90
23207;DHT22;11773;52.570;13.052;2022-10-13T15:41:38;16.10;99.90
23207;DHT22;11773;52.570;13.052;2022-10-13T15:44:07;16.10;99.90
23207;DHT22;11773;52.570;13.052;2022-10-13T15:46:37;16.00;99.90
23207;DHT22;11773;52.570;13.052;2022-10-13T15:49:08;16.00;99.90
23207;DHT22;11773;52.570;13.052;2022-10-13T15:51:38;15.90;99.90
23207;DHT22;11773;52.570;13.052;2022-10-13T15:54:07;15.90;99.90
23207;DHT22;11773;52.570;13.052;2022-10-13T15:56:37;15.80;99.90
23207;DHT22;11773;52.570;13.052;2022-10-13T15:59:06;15.80;99.90
23207;DHT22;11773;52.570;13.052;2022-10-13T16:01:36;15.70;99.90
23207;DHT22;11773;52.570;13.052;2022-10-13T16:04:05;15.70;99.90
23207;DHT22;11773;52.570;13.052;2022-10-13T16:06:35;15.50;99.90
23207;DHT22;11773;52.570;13.052;2022-10-13T16:09:05;15.50;99.90
23207;DHT22;11773;52.570;13.052;2022-10-13T16:11:35;15.60;99.90
23207;DHT22;11773;52.570;13.052;2022-10-13T16:14:04;15.50;99.90
23207;DHT22;11773;52.570;13.052;2022-10-13T16:16:33;15.50;99.90
23207;DHT22;11773;52.570;13.052;2022-10-13T16:19:03;15.50;99.90
23207;DHT22;11773;52.570;13.052;2022-10-13T16:21:32;15.40;99.90
23207;DHT22;11773;52.570;13.052;2022-10-13T16:24:02;15.30;99.90
23207;DHT22;11773;52.570;13.052;2022-10-13T16:26:31;15.20;99.90
23207;DHT22;11773;52.570;13.052;2022-10-13T16:29:01;15.20;99.90
23207;DHT22;11773;52.570;13.052;2022-10-13T16:31:30;15.10;99.90
23207;DHT22;11773;52.570;13.052;2022-10-13T16:34:00;15.10;99.90
23207;DHT22;11773;52.570;13.052;2022-10-13T16:36:29;15.00;99.90
23207;DHT22;11773;52.570;13.052;2022-10-13T16:38:59;14.90;99.90
23207;DHT22;11773;52.570;13.052;2022-10-13T16:41:28;15.00;99.90
23207;DHT22;11773;52.570;13.052;2022-10-13T16:43:58;15.00;99.90
23207;DHT22;11773;52.570;13.052;2022-10-13T16:46:27;14.90;99.90
23207;DHT22;11773;52.570;13.052;2022-10-13T16:48:57;14.80;99.90
23207;DHT22;11773;52.570;13.052;2022-10-13T16:51:27;14.80;99.90
23207;DHT22;11773;52.570;13.052;2022-10-13T16:53:58;14.80;99.90
23207;DHT22;11773;52.570;13.052;2022-10-13T16:56:29;14.70;99.90
23207;DHT22;11773;52.570;13.052;2022-10-13T16:59:01;14.70;99.90
23207;DHT22;11773;52.570;13.052;2022-10-13T17:01:33;14.70;99.90
23207;DHT22;11773;52.570;13.052;2022-10-13T17:04:04;14.70;99.90
23207;DHT22;11773;52.570;13.052;2022-10-13T17:06:33;14.60;99.90
23207;DHT22;11773;52.570;13.052;2022-10-13T17:09:05;14.60;99.90
23207;DHT22;11773;52.570;13.052;2022-10-13T17:11:35;14.60;99.90
23207;DHT22;11773;52.570;13.052;2022-10-13T17:14:04;14.50;99.90
23207;DHT22;11773;52.570;13.052;2022-10-13T17:16:34;14.50;99.90
23207;DHT22;11773;52.570;13.052;2022-10-13T17:19:04;14.40;99.90